Time;durP1;ratioP1;P1;durP2;ratioP2;P2;SDS_P1;SDS_P2;PMS_P1;PMS_P2;Temp;Humidity;BMP_temperature;BMP_pressure;BME280_temperature;BME280_humidity;BME280_pressure;Samples;Min_cycle;Max_cycle;Signal;HPM_P1;HPM_P2
2021/12/04 00:01:22;;;;;;;1.45;1.20;;;;;;;14.67;53.67;99603.03;21164034;28;20098;-71
2021/12/04 00:11:24;;;;;;;1.63;1.52;;;;;;;14.54;53.40;99570.38;21154162;28;20044;-71
2021/12/04 00:21:26;;;;;;;1.73;1.42;;;;;;;14.69;53.70;99582.28;21131285;28;20497;-71
2021/12/04 00:31:27;;;;;;;1.83;1.20;;;;;;;14.76;53.64;99587.94;21120199;28;20040;-71
2021/12/04 00:51:55;;;;;;;2.00;1.60;;;;;;;14.59;53.56;99536.81;21110893;28;20031;-71
2021/12/04 01:01:57;;;;;;;2.20;1.55;;;;;;;14.70;53.71;99553.69;21134129;28;20075;-71
2021/12/04 01:11:59;;;;;;;2.10;1.80;;;;;;;14.35;53.89;99492.66;21143459;28;20058;-71
2021/12/04 01:22:01;;;;;;;1.50;1.15;;;;;;;14.71;53.53;99540.16;21094230;28;20044;-71
2021/12/04 01:32:07;;;;;;;1.77;1.60;;;;;;;14.76;53.53;99537.88;21145218;28;20039;-71
2021/12/04 01:42:08;;;;;;;1.95;1.42;;;;;;;14.39;53.60;99470.94;21150277;28;20051;-71
2021/12/04 01:52:10;;;;;;;1.60;1.27;;;;;;;14.79;53.63;99542.09;21119356;28;20040;-72
2021/12/04 02:02:12;;;;;;;1.98;1.30;;;;;;;14.16;53.76;99404.44;21074380;28;20052;-71
2021/12/04 02:12:14;;;;;;;2.00;1.20;;;;;;;14.80;53.58;99511.63;21114374;28;20051;-71
2021/12/04 02:22:16;;;;;;;1.30;1.20;;;;;;;14.19;53.46;99406.81;21141732;28;20304;-71
2021/12/04 02:32:19;;;;;;;1.48;1.17;;;;;;;14.81;53.94;99517.84;21121122;28;20050;-71
2021/12/04 02:42:22;;;;;;;1.05;0.95;;;;;;;14.74;53.80;99490.81;21116636;28;20055;-72
2021/12/04 02:52:24;;;;;;;1.40;1.20;;;;;;;14.74;53.50;99502.34;21058098;28;20056;-71
2021/12/04 03:02:26;;;;;;;1.00;0.77;;;;;;;14.34;53.54;99433.91;21111100;28;20059;-71
2021/12/04 03:12:29;;;;;;;2.05;1.63;;;;;;;13.99;53.46;99369.41;21119609;28;20082;-71
2021/12/04 03:22:31;;;;;;;0.90;0.90;;;;;;;14.82;53.66;99482.84;21096268;28;20048;-71
2021/12/04 03:42:50;;;;;;;0.85;0.63;;;;;;;14.76;53.60;99445.97;21075657;28;20055;-71
2021/12/04 03:52:51;;;;;;;1.05;0.82;;;;;;;14.75;53.89;99449.63;21132028;28;20477;-71
2021/12/04 04:02:58;;;;;;;0.93;0.80;;;;;;;14.28;53.90;99373.78;21096906;28;20417;-71
2021/12/04 04:13:00;;;;;;;0.73;0.73;;;;;;;14.11;53.63;99329.94;21116342;28;20083;-71
2021/12/04 04:23:02;;;;;;;0.63;0.60;;;;;;;14.52;53.64;99391.09;21124378;28;20051;-71
2021/12/04 04:33:04;;;;;;;1.13;0.80;;;;;;;14.53;53.90;99390.09;21142530;28;20052;-71
2021/12/04 05:14:09;;;;;;;1.23;0.77;;;;;;;14.79;53.64;99418.88;21127861;28;20054;-72
2021/12/04 05:24:10;;;;;;;1.58;1.05;;;;;;;14.48;53.88;99346.88;21119248;28;20490;-72
2021/12/04 05:34:12;;;;;;;0.60;0.60;;;;;;;14.73;53.82;99392.69;21116847;28;20048;-72
2021/12/04 05:44:16;;;;;;;1.40;0.90;;;;;;;14.78;53.85;99395.75;21128945;28;20051;-72
2021/12/04 06:04:38;;;;;;;0.65;0.65;;;;;;;14.23;53.56;99295.78;21131035;28;20054;-71
2021/12/04 06:14:45;;;;;;;0.80;0.80;;;;;;;14.79;53.94;99392.91;21159004;28;20207;-71
2021/12/04 06:24:47;;;;;;;0.85;0.70;;;;;;;15.10;53.80;99404.22;21157997;28;20035;-70
2021/12/04 06:34:49;;;;;;;1.23;0.70;;;;;;;14.94;53.89;99336.09;21157825;28;20062;-71
2021/12/04 06:44:54;;;;;;;0.70;0.70;;;;;;;15.76;53.79;99394.81;21157214;28;20142;-71
2021/12/04 06:54:58;;;;;;;0.77;0.77;;;;;;;15.55;53.08;99306.66;21138829;28;20047;-70
2021/12/04 07:05:00;;;;;;;1.70;0.65;;;;;;;16.23;53.44;99377.44;21156229;28;20035;-72
2021/12/04 07:15:01;;;;;;;3.85;0.88;;;;;;;15.96;53.40;99314.09;21120958;28;20043;-71
2021/12/04 07:25:05;;;;;;;1.85;0.77;;;;;;;15.84;52.87;99280.47;21137515;28;20074;-72
2021/12/04 07:35:07;;;;;;;1.73;0.60;;;;;;;16.41;53.06;99338.06;21156113;28;20052;-71
2021/12/04 07:45:09;;;;;;;1.77;0.80;;;;;;;15.98;53.01;99258.41;21171118;28;20396;-72
2021/12/04 07:55:11;;;;;;;3.65;0.60;;;;;;;16.05;53.05;99254.06;21170312;28;20069;-72
2021/12/04 08:05:13;;;;;;;1.35;0.60;;;;;;;16.61;53.16;99341.28;21152571;28;20035;-72
2021/12/04 08:15:17;;;;;;;1.40;0.75;;;;;;;16.47;53.23;99315.91;21133992;28;20489;-71
2021/12/04 08:25:20;;;;;;;1.33;0.70;;;;;;;16.12;52.84;99242.66;21150210;28;20059;-71
2021/12/04 08:35:24;;;;;;;1.65;0.85;;;;;;;16.80;52.96;99364.31;21167518;28;20043;-72
2021/12/04 08:45:26;;;;;;;1.13;0.80;;;;;;;16.41;53.39;99316.56;21166242;28;20036;-72
2021/12/04 08:55:30;;;;;;;1.48;0.98;;;;;;;16.78;53.51;99332.22;21165346;28;20055;-71
2021/12/04 09:05:33;;;;;;;1.88;0.90;;;;;;;16.84;53.95;99321.78;21129954;28;20039;-71
2021/12/04 09:15:36;;;;;;;4.00;0.80;;;;;;;16.26;54.31;99217.84;21163751;28;20039;-71
2021/12/04 09:25:41;;;;;;;3.70;0.93;;;;;;;16.26;54.44;99203.59;21128851;28;20503;-71
2021/12/04 10:37:57;;;;;;;2.30;1.27;;;;;;;17.15;54.23;99235.94;21157939;28;20047;-72
2021/12/04 10:48:03;;;;;;;3.95;1.40;;;;;;;17.17;54.65;99228.53;21157450;28;20046;-71
2021/12/04 11:19:04;;;;;;;2.30;1.60;;;;;;;16.64;54.07;99102.66;21173153;28;20039;-72
2021/12/04 11:49:50;;;;;;;3.13;2.00;;;;;;;16.82;54.17;99098.91;21170938;28;20165;-73
2021/12/04 11:59:52;;;;;;;3.35;2.38;;;;;;;17.11;54.03;99137.78;21169959;28;20062;-73
2021/12/04 12:10:11;;;;;;;4.07;2.42;;;;;;;17.20;54.06;99117.91;21169311;28;20134;-73
2021/12/04 12:20:20;;;;;;;3.92;2.90;;;;;;;16.80;54.01;99053.38;21133794;28;20043;-73
2021/12/04 12:41:26;;;;;;;4.75;3.38;;;;;;;17.14;53.73;99094.44;21167023;28;20047;-71
2021/12/04 12:51:31;;;;;;;7.07;4.85;;;;;;;16.71;53.56;99024.03;21139865;28;20092;-72
2021/12/04 13:12:09;;;;;;;7.00;5.20;;;;;;;16.38;54.17;99016.94;21164610;28;20404;-73
2021/12/04 13:22:17;;;;;;;9.32;5.07;;;;;;;16.21;54.24;99000.03;21145486;28;20545;-74
2021/12/04 13:32:27;;;;;;;7.93;5.60;;;;;;;16.42;54.36;99039.75;21162038;28;20051;-74
2021/12/04 13:42:29;;;;;;;6.55;4.80;;;;;;;15.78;54.71;98960.81;21140039;28;20512;-76
2021/12/04 13:52:32;;;;;;;6.97;5.82;;;;;;;15.75;54.77;98957.66;21076483;28;20040;-72
2021/12/04 14:02:33;;;;;;;9.65;5.80;;;;;;;16.07;55.16;99021.19;21075956;28;20503;-74
2021/12/04 14:12:36;;;;;;;11.48;5.75;;;;;;;15.70;55.39;98965.38;21076152;28;20040;-73
2021/12/04 14:22:46;;;;;;;8.27;5.97;;;;;;;15.88;55.42;99019.72;21074670;28;20427;-73
2021/12/04 14:32:53;;;;;;;9.40;6.40;;;;;;;15.70;55.43;98998.38;21073922;28;20400;-72
2021/12/04 14:42:58;;;;;;;10.13;6.40;;;;;;;14.70;55.03;98865.28;21056376;28;20051;-73
2021/12/04 14:53:02;;;;;;;10.15;6.57;;;;;;;14.87;55.62;98903.69;21045505;28;20047;-72
2021/12/04 15:03:09;;;;;;;10.25;6.57;;;;;;;15.24;55.73;98977.41;21072253;28;20044;-72
2021/12/04 15:13:20;;;;;;;10.43;7.13;;;;;;;15.42;55.86;99016.66;21071847;28;20044;-72
2021/12/04 15:23:23;;;;;;;8.07;6.57;;;;;;;15.19;55.80;99012.78;21071818;28;20056;-72
2021/12/04 15:33:41;;;;;;;10.68;6.38;;;;;;;14.56;55.72;98923.81;21070783;28;20485;-72
2021/12/04 15:54:12;;;;;;;10.05;6.88;;;;;;;14.88;56.08;99016.03;21070324;28;20473;-72
2021/12/04 16:04:27;;;;;;;8.50;6.25;;;;;;;15.02;55.72;99048.56;21083292;28;20056;-72
2021/12/04 16:14:31;;;;;;;8.90;7.05;;;;;;;14.34;55.95;98950.19;21084828;28;20059;-72
2021/12/04 16:24:35;;;;;;;7.97;6.38;;;;;;;14.89;56.62;99065.13;21066086;28;20040;-72
2021/12/04 16:44:59;;;;;;;6.63;5.72;;;;;;;14.15;56.16;98955.81;21051486;28;20119;-72
2021/12/04 17:05:04;;;;;;;7.88;5.82;;;;;;;14.67;56.61;99055.78;21062774;28;20063;-72
2021/12/04 17:15:08;;;;;;;8.73;5.70;;;;;;;14.54;56.48;99010.69;21061804;28;20396;-72
2021/12/04 17:25:10;;;;;;;5.85;4.95;;;;;;;13.69;55.86;98881.97;21079046;28;20046;-72
2021/12/04 17:35:14;;;;;;;5.80;4.13;;;;;;;14.79;56.07;99092.03;21078697;28;20089;-72
2021/12/04 17:45:17;;;;;;;6.35;5.18;;;;;;;14.37;55.98;99015.97;21059875;28;20048;-72
2021/12/04 17:55:24;;;;;;;6.45;4.95;;;;;;;14.27;56.25;98992.00;21059535;28;20501;-72
2021/12/04 18:05:27;;;;;;;6.35;4.47;;;;;;;14.83;56.15;99097.91;21058064;28;20048;-72
2021/12/04 18:15:35;;;;;;;6.68;4.50;;;;;;;14.37;56.13;99026.69;21075391;28;20135;-72
2021/12/04 18:25:37;;;;;;;4.32;3.92;;;;;;;14.85;55.98;99110.13;21073987;28;20059;-73
2021/12/04 18:35:39;;;;;;;4.75;3.90;;;;;;;14.84;55.96;99110.31;21073824;28;20461;-72
2021/12/04 18:45:41;;;;;;;4.13;3.58;;;;;;;14.86;56.19;99117.16;21055734;28;20044;-73
2021/12/04 18:55:43;;;;;;;4.85;3.80;;;;;;;14.69;56.04;99102.00;21072346;28;20056;-72
2021/12/04 19:05:46;;;;;;;4.30;3.72;;;;;;;14.86;56.11;99130.56;21054017;28;20044;-73
2021/12/04 19:15:51;;;;;;;5.38;3.50;;;;;;;14.25;56.38;99031.47;21072149;28;20400;-73
2021/12/04 19:26:11;;;;;;;6.10;3.70;;;;;;;14.38;56.47;99049.78;21071614;28;20036;-73
2021/12/04 19:57:08;;;;;;;5.22;3.60;;;;;;;14.12;56.55;99025.69;21070796;28;20060;-73
2021/12/04 20:17:32;;;;;;;3.45;2.80;;;;;;;14.26;56.17;99059.91;21069299;28;20075;-72
2021/12/04 20:27:39;;;;;;;3.88;3.00;;;;;;;14.85;56.45;99161.03;21082983;28;20058;-72
2021/12/04 21:08:57;;;;;;;4.03;2.95;;;;;;;14.89;56.47;99205.28;21080397;28;20139;-72
2021/12/04 21:52:06;;;;;;;3.58;2.60;;;;;;;14.88;56.42;99216.97;20878780;28;20049;-72
2021/12/04 22:56:27;;;;;;;4.65;2.88;;;;;;;14.83;56.14;99243.41;21073141;28;20052;-72
